Latest Weather Observations for Rowley Shoals

IDW60801

Issued at 3:33 pm WST Monday 23 October 2017 (issued every 30 minutes, with the page automatically refreshed every 10 minutes)

About weather observations | Map of weather stations | Latest weather observations for WA | Other Formats
Station Details ID: 200713 Name: ROWLEY SHOALS Lat: -17.52 Lon: 118.95 Height: 0.0 m
Data from the previous 72 hours. | See also: Recent months at Rowley Shoals
Date/Time
WST
Temp
°C
App
Temp
°C
Dew
Point
°C
Rel
Hum
%
Delta-T
°C
Wind Press
QNH
hPa
Press
MSL
hPa
Rain since
9am
mm
Dir  Spd
km/h
Gust
km/h
Spd
kts
Gust
kts
23/03:30pm - - - - - N 17 20 9 11 1009.6 1009.6 -
23/03:00pm - - - - - N 19 22 10 12 1009.9 1009.6 -
23/02:30pm - - - - - NNE 20 22 11 12 1010.1 1010.1 -
23/02:00pm - - - - - NNE 20 24 11 13 1010.1 1010.1 -
23/01:30pm - - - - - NE 20 24 11 13 1010.3 1010.3 -
23/01:00pm - - - - - NE 20 24 11 13 1010.6 1010.4 -
23/12:30pm - - - - - NE 22 26 12 14 1010.8 1010.8 -
23/12:00pm - - - - - NE 22 26 12 14 1011.2 1011.0 -
23/11:30am - - - - - ENE 24 28 13 15 1011.5 1011.5 -
23/11:00am - - - - - ENE 22 28 12 15 1011.6 1011.5 -
23/10:30am - - - - - E 17 20 9 11 1011.5 1011.5 -
23/10:00am - - - - - E 17 20 9 11 1011.5 1011.5 -
23/09:30am - - - - - SE 13 15 7 8 1011.4 1011.4 -
23/09:00am - - - - - S 13 19 7 10 1011.3 1011.2 -
23/08:30am - - - - - S 17 20 9 11 1011.3 1011.3 -
23/08:00am - - - - - SSW 24 26 13 14 1011.2 1011.2 -
23/07:30am - - - - - SSW 24 28 13 15 1011.2 1011.2 -
23/07:00am - - - - - SW 28 32 15 17 1010.7 1010.8 -
23/06:30am - - - - - SW 28 32 15 17 1010.5 1010.5 -
23/06:00am - - - - - SW 32 35 17 19 1010.2 1010.4 -
23/05:30am - - - - - WSW 30 35 16 19 1010.1 1010.1 -
23/05:00am - - - - - W 26 30 14 16 1009.7 1009.8 -
23/04:30am - - - - - W 26 32 14 17 1009.3 1009.3 -
23/04:00am - - - - - W 28 32 15 17 1009.0 1009.2 -
23/03:30am - - - - - WNW 26 28 14 15 1009.1 1009.1 -
23/03:00am - - - - - WNW 24 26 13 14 1009.2 1009.2 -
23/02:30am - - - - - WNW 24 28 13 15 1009.2 1009.2 -
23/02:00am - - - - - WNW 24 26 13 14 1009.3 1009.3 -
23/01:30am - - - - - WNW 20 24 11 13 1009.5 1009.5 -
23/01:00am - - - - - WNW 20 24 11 13 1010.0 1009.8 -
23/12:30am - - - - - WNW 19 20 10 11 1010.3 1010.3 -
23/12:00am - - - - - WNW 17 20 9 11 1010.5 1010.5 -
 
Date/Time
WST
Temp
°C
App
Temp
°C
Dew
Point
°C
Rel
Hum
%
Delta-T
°C
Wind Press
QNH
hPa
Press
MSL
hPa
Rain since
9am
mm
Dir  Spd
km/h
Gust
km/h
Spd
kts
Gust
kts
22/11:30pm - - - - - NW 13 15 7 8 1010.9 1010.9 -
22/11:00pm - - - - - WNW 13 15 7 8 1011.0 1011.0 -
22/10:30pm - - - - - NW 13 15 7 8 1011.2 1011.2 -
22/10:00pm - - - - - NNW 11 13 6 7 1011.4 1011.3 -
22/09:30pm - - - - - N 13 13 7 7 1011.3 1011.3 -
22/09:00pm - - - - - N 13 15 7 8 1011.1 1011.1 -
22/08:30pm - - - - - N 15 17 8 9 1010.9 1010.9 -
22/08:00pm - - - - - NNE 17 19 9 10 1010.7 1010.8 -
22/07:30pm - - - - - NNE 13 15 7 8 1010.5 1010.5 -
22/07:00pm - - - - - N 13 15 7 8 1010.1 1010.2 -
22/06:30pm - - - - - N 13 15 7 8 1009.7 1009.7 -
22/06:00pm - - - - - N 15 15 8 8 1009.2 1009.3 -
22/05:30pm - - - - - NNE 17 19 9 10 1008.9 1008.9 -
22/05:00pm - - - - - N 17 20 9 11 1008.8 1008.9 -
22/04:30pm - - - - - NNE 19 20 10 11 1008.9 1008.9 -
22/04:00pm - - - - - NNE 17 19 9 10 1009.0 1008.8 -
22/03:30pm - - - - - NE 13 17 7 9 1009.3 1009.3 -
22/03:00pm - - - - - ENE 11 13 6 7 1009.3 1009.3 -
22/02:30pm - - - - - ENE 13 15 7 8 1009.4 1009.4 -
22/02:00pm - - - - - ENE 13 15 7 8 1009.5 1009.5 -
22/01:30pm - - - - - E 11 13 6 7 1009.6 1009.6 -
22/01:00pm - - - - - E 13 15 7 8 1010.2 1010.1 -
22/12:30pm - - - - - E 15 17 8 9 1010.5 1010.5 -
22/12:00pm - - - - - E 13 17 7 9 1010.9 1010.8 -
22/11:30am - - - - - ENE 11 13 6 7 1011.2 1011.2 -
22/11:00am - - - - - NE 11 13 6 7 1011.4 1011.4 -
22/10:30am - - - - - NE 13 15 7 8 1011.7 1011.7 -
22/10:00am - - - - - NE 11 15 6 8 1012.0 1011.9 -
22/09:30am - - - - - NE 13 15 7 8 1012.2 1012.2 -
22/09:00am - - - - - NE 13 13 7 7 1012.2 1012.1 -
22/08:30am - - - - - ENE 11 13 6 7 1012.2 1012.2 -
22/08:00am - - - - - E 9 11 5 6 1012.0 1012.1 -
22/07:30am - - - - - ESE 7 9 4 5 1011.8 1011.8 -
22/07:00am - - - - - S 7 9 4 5 1011.7 1011.6 -
22/06:30am - - - - - SSW 13 15 7 8 1011.5 1011.5 -
22/06:00am - - - - - SW 13 17 7 9 1011.2 1011.4 -
22/05:30am - - - - - SW 13 20 7 11 1010.9 1010.9 -
22/05:00am - - - - - W 17 20 9 11 1010.3 1010.4 -
22/04:30am - - - - - WNW 20 22 11 12 1009.8 1009.8 -
22/04:00am - - - - - WNW 22 26 12 14 1009.5 1009.6 -
22/03:30am - - - - - WNW 20 22 11 12 1009.5 1009.5 -
22/03:00am - - - - - WNW 20 26 11 14 1009.4 1009.5 -
22/02:30am - - - - - WNW 20 24 11 13 1009.4 1009.4 -
22/02:00am - - - - - WNW 20 24 11 13 1009.2 1009.2 -
22/01:30am - - - - - NW 19 20 10 11 1009.9 1009.9 -
22/01:00am - - - - - NW 17 19 9 10 1010.2 1010.0 -
22/12:30am - - - - - NW 11 13 6 7 1010.6 1010.6 -
22/12:00am - - - - - NW 13 15 7 8 1010.7 1010.6 -
 
Date/Time
WST
Temp
°C
App
Temp
°C
Dew
Point
°C
Rel
Hum
%
Delta-T
°C
Wind Press
QNH
hPa
Press
MSL
hPa
Rain since
9am
mm
Dir  Spd
km/h
Gust
km/h
Spd
kts
Gust
kts
21/11:30pm - - - - - NNW 13 15 7 8 1010.9 1010.9 -
21/11:00pm - - - - - NNW 11 13 6 7 1011.1 1011.1 -
21/10:30pm - - - - - WNW 9 9 5 5 1011.7 1011.7 -
21/10:00pm - - - - - WNW 7 9 4 5 1011.8 1011.8 -
21/09:30pm - - - - - NNW 11 13 6 7 1011.8 1011.8 -
21/09:00pm - - - - - N 17 20 9 11 1011.2 1011.3 -
21/08:30pm - - - - - N 17 19 9 10 1011.2 1011.2 -
21/08:00pm - - - - - N 13 15 7 8 1010.9 1010.8 -
21/07:30pm - - - - - N 13 15 7 8 1010.8 1010.8 -
21/07:00pm - - - - - N 17 19 9 10 1010.5 1010.5 -
21/06:30pm - - - - - N 17 20 9 11 1010.0 1010.0 -
21/06:00pm - - - - - N 15 17 8 9 1009.9 1010.0 -
21/05:30pm - - - - - N 17 20 9 11 1009.5 1009.5 -
21/05:00pm - - - - - N 20 26 11 14 1009.0 1009.1 -
21/04:30pm - - - - - N 20 24 11 13 1008.9 1008.9 -
21/04:00pm - - - - - N 22 26 12 14 1009.0 1008.7 -
21/03:30pm - - - - - N 20 24 11 13 1009.3 1009.3 -
21/03:00pm - - - - - NNE 22 26 12 14 1009.4 1009.4 -
21/02:30pm - - - - - NNE 22 26 12 14 1009.7 1009.7 -
21/02:00pm - - - - - NNE 24 28 13 15 1010.0 1009.9 -
21/01:30pm - - - - - NE 24 28 13 15 1010.3 1010.3 -
21/01:00pm - - - - - NE 26 30 14 16 1010.5 1010.5 -
21/12:30pm - - - - - NE 24 28 13 15 1010.8 1010.8 -
21/12:00pm - - - - - NE 24 26 13 14 1011.3 1011.2 -
21/11:30am - - - - - NE 24 26 13 14 1011.7 1011.7 -
21/11:00am - - - - - NE 24 28 13 15 1011.8 1011.8 -
21/10:30am - - - - - NE 24 30 13 16 1012.2 1012.2 -
21/10:00am - - - - - NE 22 26 12 14 1012.3 1012.3 -
21/09:30am - - - - - ENE 19 22 10 12 1012.2 1012.2 -
21/09:00am - - - - - ENE 17 20 9 11 1012.2 1012.1 -
21/08:30am - - - - - ENE 15 17 8 9 1012.1 1012.1 -
21/08:00am - - - - - E 17 19 9 10 1011.8 1011.9 -
21/07:30am - - - - - E 17 20 9 11 1011.7 1011.7 -
21/07:00am - - - - - E 17 20 9 11 1011.6 1011.6 -
21/06:30am - - - - - E 19 24 10 13 1011.3 1011.3 -
21/06:00am - - - - - ESE 13 17 7 9 1011.0 1011.1 -
21/05:30am - - - - - SE 9 11 5 6 1010.2 1010.2 -
21/05:00am - - - - - S 7 9 4 5 1009.8 1009.9 -
21/04:30am - - - - - SSW 15 20 8 11 1009.5 1009.5 -
21/04:00am - - - - - SSW 20 26 11 14 1009.2 1009.3 -
21/03:30am - - - - - SSW 24 30 13 16 1009.2 1009.2 -
21/03:00am - - - - - SW 22 24 12 13 1009.3 1009.4 -
21/02:30am - - - - - WSW 19 24 10 13 1009.2 1009.2 -
21/02:00am - - - - - W 15 19 8 10 1009.3 1009.2 -
21/01:30am - - - - - WNW 11 15 6 8 1009.4 1009.4 -
21/01:00am - - - - - NNW 11 15 6 8 1009.4 1009.6 -
21/12:30am - - - - - N 11 13 6 7 1009.9 1009.9 -
21/12:00am - - - - - ENE 6 7 3 4 1010.2 1010.1 -
 
Date/Time
WST
Temp
°C
App
Temp
°C
Dew
Point
°C
Rel
Hum
%
Delta-T
°C
Wind Press
QNH
hPa
Press
MSL
hPa
Rain since
9am
mm
Dir  Spd
km/h
Gust
km/h
Spd
kts
Gust
kts
20/11:30pm - - - - - ENE 6 7 3 4 1010.4 1010.4 -
20/11:00pm - - - - - E 7 11 4 6 1010.7 1010.8 -
20/10:30pm - - - - - ESE 11 13 6 7 1011.0 1011.0 -
20/10:00pm - - - - - CALM 0 0 0 0 1010.7 1011.0 -
20/09:30pm - - - - - ESE 9 13 5 7 1010.7 1010.7 -
20/09:00pm - - - - - ESE 13 17 7 9 1010.8 1010.9 -
20/08:30pm - - - - - E 13 15 7 8 1010.4 1010.4 -
20/08:00pm - - - - - ESE 17 22 9 12 1010.3 1010.4 -
20/07:30pm - - - - - ESE 19 20 10 11 1010.1 1010.1 -
20/07:00pm - - - - - ESE 19 20 10 11 1009.9 1009.9 -
20/06:30pm - - - - - ESE 17 20 9 11 1009.5 1009.5 -
20/06:00pm - - - - - SE 19 20 10 11 1009.1 1009.2 -
20/05:30pm - - - - - ESE 19 22 10 12 1008.8 1008.8 -
20/05:00pm - - - - - ESE 20 24 11 13 1008.5 1008.6 -
20/04:30pm - - - - - ESE 24 26 13 14 1008.2 1008.2 -
20/04:00pm - - - - - SE 26 32 14 17 1008.0 1008.0 -

Other Formats:

Comma delimited format used in spreadsheet applications
http://www.bom.gov.au/fwo/IDW60801/IDW60801.94207.axf

JavaScript Object Notation format (JSON) in row-major order
http://www.bom.gov.au/fwo/IDW60801/IDW60801.94207.json